sensor_id;sensor_type;location;lat;lon;timestamp;P1;durP1;ratioP1;P2;durP2;ratioP2
24383;SDS011;12504;52.870;8.798;2022-12-07T00:01:09;33.65;;;14.57;;
24383;SDS011;12504;52.870;8.798;2022-12-07T00:03:37;30.73;;;14.73;;
24383;SDS011;12504;52.870;8.798;2022-12-07T00:06:04;34.33;;;15.27;;
24383;SDS011;12504;52.870;8.798;2022-12-07T00:08:31;36.55;;;15.07;;
24383;SDS011;12504;52.870;8.798;2022-12-07T00:11:02;33.53;;;13.73;;
24383;SDS011;12504;52.870;8.798;2022-12-07T00:13:29;32.30;;;13.77;;
24383;SDS011;12504;52.870;8.798;2022-12-07T00:15:59;28.75;;;13.27;;
24383;SDS011;12504;52.870;8.798;2022-12-07T00:18:30;30.58;;;13.15;;
24383;SDS011;12504;52.870;8.798;2022-12-07T00:21:15;25.40;;;10.40;;
24383;SDS011;12504;52.870;8.798;2022-12-07T00:23:44;30.77;;;11.90;;
24383;SDS011;12504;52.870;8.798;2022-12-07T00:26:12;25.17;;;11.60;;
24383;SDS011;12504;52.870;8.798;2022-12-07T00:28:38;31.52;;;12.82;;
24383;SDS011;12504;52.870;8.798;2022-12-07T00:31:04;30.20;;;14.35;;
24383;SDS011;12504;52.870;8.798;2022-12-07T00:33:32;30.60;;;13.68;;
24383;SDS011;12504;52.870;8.798;2022-12-07T00:35:59;23.23;;;11.60;;
24383;SDS011;12504;52.870;8.798;2022-12-07T00:38:27;27.80;;;11.02;;
24383;SDS011;12504;52.870;8.798;2022-12-07T00:40:55;22.92;;;11.18;;
24383;SDS011;12504;52.870;8.798;2022-12-07T00:43:22;24.25;;;12.23;;
24383;SDS011;12504;52.870;8.798;2022-12-07T00:45:48;27.35;;;12.48;;
24383;SDS011;12504;52.870;8.798;2022-12-07T00:48:13;23.88;;;10.73;;
24383;SDS011;12504;52.870;8.798;2022-12-07T00:50:39;27.42;;;10.77;;
24383;SDS011;12504;52.870;8.798;2022-12-07T00:53:05;19.73;;;10.30;;
24383;SDS011;12504;52.870;8.798;2022-12-07T00:55:34;26.02;;;11.50;;
24383;SDS011;12504;52.870;8.798;2022-12-07T00:58:00;35.28;;;11.70;;
24383;SDS011;12504;52.870;8.798;2022-12-07T01:00:25;21.15;;;9.40;;
24383;SDS011;12504;52.870;8.798;2022-12-07T01:02:51;21.40;;;10.43;;
24383;SDS011;12504;52.870;8.798;2022-12-07T01:05:17;20.02;;;9.05;;
24383;SDS011;12504;52.870;8.798;2022-12-07T01:07:43;20.40;;;10.38;;
24383;SDS011;12504;52.870;8.798;2022-12-07T01:10:09;16.10;;;8.90;;
24383;SDS011;12504;52.870;8.798;2022-12-07T01:12:35;25.80;;;10.75;;
24383;SDS011;12504;52.870;8.798;2022-12-07T01:15:00;20.33;;;9.98;;
24383;SDS011;12504;52.870;8.798;2022-12-07T01:17:26;19.00;;;8.60;;
24383;SDS011;12504;52.870;8.798;2022-12-07T01:19:53;20.83;;;9.50;;
24383;SDS011;12504;52.870;8.798;2022-12-07T01:22:19;18.70;;;9.30;;
24383;SDS011;12504;52.870;8.798;2022-12-07T01:24:46;17.88;;;8.38;;
24383;SDS011;12504;52.870;8.798;2022-12-07T01:27:12;17.10;;;7.63;;
24383;SDS011;12504;52.870;8.798;2022-12-07T01:29:39;20.77;;;9.27;;
24383;SDS011;12504;52.870;8.798;2022-12-07T01:32:04;15.55;;;6.60;;
24383;SDS011;12504;52.870;8.798;2022-12-07T01:34:30;21.45;;;8.38;;
24383;SDS011;12504;52.870;8.798;2022-12-07T01:36:56;16.70;;;7.70;;
24383;SDS011;12504;52.870;8.798;2022-12-07T01:39:22;16.45;;;7.72;;
24383;SDS011;12504;52.870;8.798;2022-12-07T01:41:48;18.38;;;8.98;;
24383;SDS011;12504;52.870;8.798;2022-12-07T01:49:21;17.70;;;7.57;;
24383;SDS011;12504;52.870;8.798;2022-12-07T01:52:01;15.32;;;7.43;;
24383;SDS011;12504;52.870;8.798;2022-12-07T01:54:39;14.63;;;7.63;;
24383;SDS011;12504;52.870;8.798;2022-12-07T01:57:06;21.27;;;6.90;;
24383;SDS011;12504;52.870;8.798;2022-12-07T01:59:34;25.52;;;8.60;;
24383;SDS011;12504;52.870;8.798;2022-12-07T02:02:00;22.13;;;8.57;;
24383;SDS011;12504;52.870;8.798;2022-12-07T02:04:29;20.65;;;9.02;;
24383;SDS011;12504;52.870;8.798;2022-12-07T02:06:55;15.80;;;8.23;;
24383;SDS011;12504;52.870;8.798;2022-12-07T02:09:22;17.83;;;9.15;;
24383;SDS011;12504;52.870;8.798;2022-12-07T02:11:48;23.23;;;8.43;;
24383;SDS011;12504;52.870;8.798;2022-12-07T02:14:14;18.58;;;7.35;;
24383;SDS011;12504;52.870;8.798;2022-12-07T02:22:18;22.27;;;8.57;;
24383;SDS011;12504;52.870;8.798;2022-12-07T02:25:07;25.50;;;7.25;;
24383;SDS011;12504;52.870;8.798;2022-12-07T02:27:56;21.70;;;7.45;;
24383;SDS011;12504;52.870;8.798;2022-12-07T02:30:31;21.08;;;8.38;;
24383;SDS011;12504;52.870;8.798;2022-12-07T02:33:04;18.83;;;9.10;;
24383;SDS011;12504;52.870;8.798;2022-12-07T02:35:39;23.45;;;7.78;;
24383;SDS011;12504;52.870;8.798;2022-12-07T02:40:33;17.75;;;7.60;;
24383;SDS011;12504;52.870;8.798;2022-12-07T02:43:17;19.15;;;7.82;;
24383;SDS011;12504;52.870;8.798;2022-12-07T02:46:10;17.80;;;8.07;;
24383;SDS011;12504;52.870;8.798;2022-12-07T02:48:42;28.00;;;8.77;;
24383;SDS011;12504;52.870;8.798;2022-12-07T02:51:08;16.60;;;7.00;;
24383;SDS011;12504;52.870;8.798;2022-12-07T02:53:38;14.23;;;6.18;;
24383;SDS011;12504;52.870;8.798;2022-12-07T02:56:07;14.35;;;7.53;;
24383;SDS011;12504;52.870;8.798;2022-12-07T02:58:50;16.25;;;8.57;;
24383;SDS011;12504;52.870;8.798;2022-12-07T03:12:24;16.85;;;7.13;;
24383;SDS011;12504;52.870;8.798;2022-12-07T03:14:59;14.25;;;7.80;;
24383;SDS011;12504;52.870;8.798;2022-12-07T03:17:32;13.02;;;6.50;;
24383;SDS011;12504;52.870;8.798;2022-12-07T03:20:04;16.10;;;7.47;;
24383;SDS011;12504;52.870;8.798;2022-12-07T03:22:31;20.67;;;6.38;;
24383;SDS011;12504;52.870;8.798;2022-12-07T03:25:02;16.27;;;7.00;;
24383;SDS011;12504;52.870;8.798;2022-12-07T03:27:34;14.00;;;5.78;;
24383;SDS011;12504;52.870;8.798;2022-12-07T03:30:16;18.02;;;6.35;;
24383;SDS011;12504;52.870;8.798;2022-12-07T03:32:53;25.95;;;6.88;;
24383;SDS011;12504;52.870;8.798;2022-12-07T03:35:40;18.50;;;6.57;;
24383;SDS011;12504;52.870;8.798;2022-12-07T03:38:17;20.20;;;6.95;;
24383;SDS011;12504;52.870;8.798;2022-12-07T03:41:14;18.05;;;7.38;;
24383;SDS011;12504;52.870;8.798;2022-12-07T03:43:45;16.98;;;7.50;;
24383;SDS011;12504;52.870;8.798;2022-12-07T03:46:23;14.95;;;7.75;;
24383;SDS011;12504;52.870;8.798;2022-12-07T03:57:17;15.98;;;6.05;;
24383;SDS011;12504;52.870;8.798;2022-12-07T03:59:43;18.77;;;7.95;;
24383;SDS011;12504;52.870;8.798;2022-12-07T04:02:11;17.33;;;6.38;;
24383;SDS011;12504;52.870;8.798;2022-12-07T04:04:38;16.20;;;6.28;;
24383;SDS011;12504;52.870;8.798;2022-12-07T04:07:04;14.68;;;6.65;;
24383;SDS011;12504;52.870;8.798;2022-12-07T04:09:30;18.52;;;6.50;;
24383;SDS011;12504;52.870;8.798;2022-12-07T04:11:56;20.92;;;7.50;;
24383;SDS011;12504;52.870;8.798;2022-12-07T04:14:21;13.35;;;7.35;;
24383;SDS011;12504;52.870;8.798;2022-12-07T04:16:51;15.35;;;6.88;;
24383;SDS011;12504;52.870;8.798;2022-12-07T04:19:23;23.70;;;6.95;;
24383;SDS011;12504;52.870;8.798;2022-12-07T04:21:50;15.70;;;6.90;;
24383;SDS011;12504;52.870;8.798;2022-12-07T04:24:16;17.15;;;6.50;;
24383;SDS011;12504;52.870;8.798;2022-12-07T04:26:42;12.63;;;7.35;;
24383;SDS011;12504;52.870;8.798;2022-12-07T04:29:09;13.30;;;5.90;;
24383;SDS011;12504;52.870;8.798;2022-12-07T04:31:36;20.85;;;7.40;;
24383;SDS011;12504;52.870;8.798;2022-12-07T04:34:02;16.60;;;7.13;;
24383;SDS011;12504;52.870;8.798;2022-12-07T04:36:28;15.77;;;6.55;;
24383;SDS011;12504;52.870;8.798;2022-12-07T04:38:54;18.27;;;7.82;;
24383;SDS011;12504;52.870;8.798;2022-12-07T04:41:21;16.13;;;5.85;;
24383;SDS011;12504;52.870;8.798;2022-12-07T04:43:58;12.10;;;6.10;;
24383;SDS011;12504;52.870;8.798;2022-12-07T04:46:29;17.70;;;5.85;;
24383;SDS011;12504;52.870;8.798;2022-12-07T04:48:56;16.88;;;6.85;;
24383;SDS011;12504;52.870;8.798;2022-12-07T04:51:24;12.35;;;5.68;;
24383;SDS011;12504;52.870;8.798;2022-12-07T04:53:51;16.63;;;6.43;;
24383;SDS011;12504;52.870;8.798;2022-12-07T04:56:18;12.77;;;5.90;;
24383;SDS011;12504;52.870;8.798;2022-12-07T04:58:44;11.18;;;5.25;;
24383;SDS011;12504;52.870;8.798;2022-12-07T05:01:11;13.00;;;5.38;;
24383;SDS011;12504;52.870;8.798;2022-12-07T05:03:38;16.90;;;6.47;;
24383;SDS011;12504;52.870;8.798;2022-12-07T05:06:04;15.27;;;5.63;;
24383;SDS011;12504;52.870;8.798;2022-12-07T05:08:31;18.58;;;5.40;;
24383;SDS011;12504;52.870;8.798;2022-12-07T05:10:58;9.23;;;4.10;;
24383;SDS011;12504;52.870;8.798;2022-12-07T05:13:24;7.00;;;3.90;;
24383;SDS011;12504;52.870;8.798;2022-12-07T05:15:50;11.75;;;5.35;;
24383;SDS011;12504;52.870;8.798;2022-12-07T05:18:16;7.78;;;4.03;;
24383;SDS011;12504;52.870;8.798;2022-12-07T05:20:42;15.35;;;6.07;;
24383;SDS011;12504;52.870;8.798;2022-12-07T05:23:09;10.27;;;5.22;;
24383;SDS011;12504;52.870;8.798;2022-12-07T05:25:35;14.27;;;5.70;;
24383;SDS011;12504;52.870;8.798;2022-12-07T05:28:01;12.20;;;5.25;;
24383;SDS011;12504;52.870;8.798;2022-12-07T05:30:27;22.75;;;5.90;;
24383;SDS011;12504;52.870;8.798;2022-12-07T05:32:53;16.95;;;4.40;;
24383;SDS011;12504;52.870;8.798;2022-12-07T05:35:18;12.07;;;4.45;;
24383;SDS011;12504;52.870;8.798;2022-12-07T05:37:44;11.07;;;3.67;;
24383;SDS011;12504;52.870;8.798;2022-12-07T05:40:11;14.10;;;5.70;;
24383;SDS011;12504;52.870;8.798;2022-12-07T05:42:38;11.60;;;3.53;;
24383;SDS011;12504;52.870;8.798;2022-12-07T05:45:04;13.57;;;3.92;;
24383;SDS011;12504;52.870;8.798;2022-12-07T05:47:30;8.45;;;4.20;;
24383;SDS011;12504;52.870;8.798;2022-12-07T05:49:56;9.88;;;4.18;;
24383;SDS011;12504;52.870;8.798;2022-12-07T05:52:22;18.15;;;4.00;;
24383;SDS011;12504;52.870;8.798;2022-12-07T05:54:48;9.30;;;3.65;;
24383;SDS011;12504;52.870;8.798;2022-12-07T05:57:14;9.38;;;3.30;;
24383;SDS011;12504;52.870;8.798;2022-12-07T05:59:40;7.40;;;2.67;;
24383;SDS011;12504;52.870;8.798;2022-12-07T06:02:07;13.80;;;4.60;;
24383;SDS011;12504;52.870;8.798;2022-12-07T06:04:36;5.90;;;3.25;;
24383;SDS011;12504;52.870;8.798;2022-12-07T06:07:04;13.43;;;3.57;;
24383;SDS011;12504;52.870;8.798;2022-12-07T06:09:30;6.03;;;3.28;;
24383;SDS011;12504;52.870;8.798;2022-12-07T06:11:56;8.00;;;3.35;;
24383;SDS011;12504;52.870;8.798;2022-12-07T06:14:41;20.20;;;3.80;;
24383;SDS011;12504;52.870;8.798;2022-12-07T06:17:07;12.10;;;2.50;;
24383;SDS011;12504;52.870;8.798;2022-12-07T06:19:33;8.55;;;2.75;;
24383;SDS011;12504;52.870;8.798;2022-12-07T06:21:59;7.07;;;2.20;;
24383;SDS011;12504;52.870;8.798;2022-12-07T06:24:25;9.60;;;3.38;;
24383;SDS011;12504;52.870;8.798;2022-12-07T06:26:51;10.35;;;2.97;;
24383;SDS011;12504;52.870;8.798;2022-12-07T06:29:17;6.80;;;2.80;;
24383;SDS011;12504;52.870;8.798;2022-12-07T06:31:43;10.55;;;2.50;;
24383;SDS011;12504;52.870;8.798;2022-12-07T06:34:10;6.72;;;2.40;;
24383;SDS011;12504;52.870;8.798;2022-12-07T06:36:38;5.70;;;2.33;;
24383;SDS011;12504;52.870;8.798;2022-12-07T06:39:04;16.60;;;2.85;;
24383;SDS011;12504;52.870;8.798;2022-12-07T06:41:30;5.22;;;2.40;;
24383;SDS011;12504;52.870;8.798;2022-12-07T06:43:56;6.10;;;2.30;;
24383;SDS011;12504;52.870;8.798;2022-12-07T06:46:22;6.03;;;2.40;;
24383;SDS011;12504;52.870;8.798;2022-12-07T06:48:48;5.32;;;2.35;;
24383;SDS011;12504;52.870;8.798;2022-12-07T06:51:14;7.35;;;2.45;;
24383;SDS011;12504;52.870;8.798;2022-12-07T06:53:40;8.15;;;2.60;;
24383;SDS011;12504;52.870;8.798;2022-12-07T06:56:06;9.73;;;2.33;;
24383;SDS011;12504;52.870;8.798;2022-12-07T06:58:32;6.05;;;2.33;;
24383;SDS011;12504;52.870;8.798;2022-12-07T07:00:58;8.00;;;2.50;;
24383;SDS011;12504;52.870;8.798;2022-12-07T07:03:23;8.88;;;3.15;;
24383;SDS011;12504;52.870;8.798;2022-12-07T07:05:49;6.40;;;2.50;;
24383;SDS011;12504;52.870;8.798;2022-12-07T07:08:15;13.88;;;2.80;;
24383;SDS011;12504;52.870;8.798;2022-12-07T07:10:41;8.50;;;3.30;;
24383;SDS011;12504;52.870;8.798;2022-12-07T07:13:06;17.90;;;3.75;;
24383;SDS011;12504;52.870;8.798;2022-12-07T07:15:33;6.60;;;2.78;;
24383;SDS011;12504;52.870;8.798;2022-12-07T07:17:59;16.45;;;2.53;;
24383;SDS011;12504;52.870;8.798;2022-12-07T07:20:25;6.38;;;4.55;;
24383;SDS011;12504;52.870;8.798;2022-12-07T07:22:53;8.95;;;2.38;;
24383;SDS011;12504;52.870;8.798;2022-12-07T07:25:19;6.03;;;2.58;;
24383;SDS011;12504;52.870;8.798;2022-12-07T07:27:45;5.70;;;3.47;;
24383;SDS011;12504;52.870;8.798;2022-12-07T07:30:11;11.82;;;4.43;;
24383;SDS011;12504;52.870;8.798;2022-12-07T07:32:37;6.22;;;3.30;;
24383;SDS011;12504;52.870;8.798;2022-12-07T07:35:03;9.95;;;3.13;;
24383;SDS011;12504;52.870;8.798;2022-12-07T07:37:29;10.43;;;2.90;;
24383;SDS011;12504;52.870;8.798;2022-12-07T07:39:54;5.80;;;2.30;;
24383;SDS011;12504;52.870;8.798;2022-12-07T07:42:20;9.38;;;2.35;;
24383;SDS011;12504;52.870;8.798;2022-12-07T07:44:46;9.77;;;2.13;;
24383;SDS011;12504;52.870;8.798;2022-12-07T07:47:12;4.07;;;1.73;;
24383;SDS011;12504;52.870;8.798;2022-12-07T07:49:37;4.93;;;2.25;;
24383;SDS011;12504;52.870;8.798;2022-12-07T07:52:04;6.43;;;1.88;;
24383;SDS011;12504;52.870;8.798;2022-12-07T07:54:31;3.97;;;1.65;;
24383;SDS011;12504;52.870;8.798;2022-12-07T07:56:57;18.02;;;3.80;;
24383;SDS011;12504;52.870;8.798;2022-12-07T07:59:23;4.40;;;2.00;;
24383;SDS011;12504;52.870;8.798;2022-12-07T08:01:49;3.17;;;2.00;;
24383;SDS011;12504;52.870;8.798;2022-12-07T08:04:15;4.05;;;1.63;;
24383;SDS011;12504;52.870;8.798;2022-12-07T08:06:41;4.32;;;1.73;;
24383;SDS011;12504;52.870;8.798;2022-12-07T08:09:07;3.80;;;2.75;;
24383;SDS011;12504;52.870;8.798;2022-12-07T08:11:33;7.10;;;1.95;;
24383;SDS011;12504;52.870;8.798;2022-12-07T08:14:00;7.05;;;2.47;;
24383;SDS011;12504;52.870;8.798;2022-12-07T08:16:25;9.93;;;2.63;;
24383;SDS011;12504;52.870;8.798;2022-12-07T08:18:51;2.85;;;1.60;;
24383;SDS011;12504;52.870;8.798;2022-12-07T08:21:17;15.68;;;3.03;;
24383;SDS011;12504;52.870;8.798;2022-12-07T08:23:43;5.65;;;2.47;;
24383;SDS011;12504;52.870;8.798;2022-12-07T08:26:13;7.13;;;2.15;;
24383;SDS011;12504;52.870;8.798;2022-12-07T08:28:40;4.45;;;2.42;;
24383;SDS011;12504;52.870;8.798;2022-12-07T08:31:07;4.28;;;2.05;;
24383;SDS011;12504;52.870;8.798;2022-12-07T08:33:35;4.67;;;2.30;;
24383;SDS011;12504;52.870;8.798;2022-12-07T08:36:02;10.35;;;3.00;;
24383;SDS011;12504;52.870;8.798;2022-12-07T08:38:29;5.72;;;2.92;;
24383;SDS011;12504;52.870;8.798;2022-12-07T08:40:55;5.82;;;3.65;;
24383;SDS011;12504;52.870;8.798;2022-12-07T08:43:22;6.15;;;2.55;;
24383;SDS011;12504;52.870;8.798;2022-12-07T08:45:48;8.90;;;3.08;;
24383;SDS011;12504;52.870;8.798;2022-12-07T08:48:26;10.25;;;2.83;;
24383;SDS011;12504;52.870;8.798;2022-12-07T08:50:51;6.55;;;2.20;;
24383;SDS011;12504;52.870;8.798;2022-12-07T08:53:17;5.45;;;2.92;;
24383;SDS011;12504;52.870;8.798;2022-12-07T08:55:44;6.70;;;3.58;;
24383;SDS011;12504;52.870;8.798;2022-12-07T08:58:11;5.65;;;3.05;;
24383;SDS011;12504;52.870;8.798;2022-12-07T09:00:37;7.70;;;2.60;;
24383;SDS011;12504;52.870;8.798;2022-12-07T09:03:02;6.88;;;3.20;;
24383;SDS011;12504;52.870;8.798;2022-12-07T09:05:28;6.38;;;2.85;;
24383;SDS011;12504;52.870;8.798;2022-12-07T09:07:55;10.30;;;3.80;;
24383;SDS011;12504;52.870;8.798;2022-12-07T09:10:24;12.95;;;2.88;;
24383;SDS011;12504;52.870;8.798;2022-12-07T09:12:49;8.88;;;3.70;;
24383;SDS011;12504;52.870;8.798;2022-12-07T09:15:15;8.70;;;3.97;;
24383;SDS011;12504;52.870;8.798;2022-12-07T09:17:41;7.43;;;3.72;;
24383;SDS011;12504;52.870;8.798;2022-12-07T09:20:07;8.45;;;4.40;;
24383;SDS011;12504;52.870;8.798;2022-12-07T09:22:33;10.98;;;4.40;;
24383;SDS011;12504;52.870;8.798;2022-12-07T09:24:59;9.52;;;6.18;;
24383;SDS011;12504;52.870;8.798;2022-12-07T09:27:25;9.65;;;5.05;;
24383;SDS011;12504;52.870;8.798;2022-12-07T09:29:51;9.70;;;4.63;;
24383;SDS011;12504;52.870;8.798;2022-12-07T09:32:17;19.70;;;8.43;;
24383;SDS011;12504;52.870;8.798;2022-12-07T09:34:43;13.35;;;4.88;;
24383;SDS011;12504;52.870;8.798;2022-12-07T09:37:09;7.88;;;4.53;;
24383;SDS011;12504;52.870;8.798;2022-12-07T09:39:37;13.48;;;5.95;;
24383;SDS011;12504;52.870;8.798;2022-12-07T09:42:03;12.05;;;5.35;;
24383;SDS011;12504;52.870;8.798;2022-12-07T09:44:30;19.08;;;9.32;;
24383;SDS011;12504;52.870;8.798;2022-12-07T09:46:57;14.00;;;6.45;;
24383;SDS011;12504;52.870;8.798;2022-12-07T09:49:24;12.85;;;5.93;;
24383;SDS011;12504;52.870;8.798;2022-12-07T09:52:03;14.95;;;5.50;;
24383;SDS011;12504;52.870;8.798;2022-12-07T09:54:33;11.07;;;4.75;;
24383;SDS011;12504;52.870;8.798;2022-12-07T09:57:11;17.20;;;5.68;;
24383;SDS011;12504;52.870;8.798;2022-12-07T09:59:37;7.35;;;4.47;;
24383;SDS011;12504;52.870;8.798;2022-12-07T10:02:19;14.02;;;4.85;;
24383;SDS011;12504;52.870;8.798;2022-12-07T10:05:00;8.82;;;4.22;;
24383;SDS011;12504;52.870;8.798;2022-12-07T10:07:26;11.40;;;4.95;;
24383;SDS011;12504;52.870;8.798;2022-12-07T10:09:52;13.25;;;4.63;;
24383;SDS011;12504;52.870;8.798;2022-12-07T10:12:17;15.85;;;5.47;;
24383;SDS011;12504;52.870;8.798;2022-12-07T10:14:57;10.82;;;4.75;;
24383;SDS011;12504;52.870;8.798;2022-12-07T10:20:13;10.20;;;4.63;;
24383;SDS011;12504;52.870;8.798;2022-12-07T10:25:33;9.60;;;5.25;;
24383;SDS011;12504;52.870;8.798;2022-12-07T10:28:03;10.05;;;4.97;;
24383;SDS011;12504;52.870;8.798;2022-12-07T10:30:45;9.23;;;4.32;;
24383;SDS011;12504;52.870;8.798;2022-12-07T10:33:27;7.85;;;4.47;;
24383;SDS011;12504;52.870;8.798;2022-12-07T10:36:01;12.07;;;5.05;;
24383;SDS011;12504;52.870;8.798;2022-12-07T10:38:47;10.02;;;4.18;;
24383;SDS011;12504;52.870;8.798;2022-12-07T10:41:15;12.75;;;4.13;;
24383;SDS011;12504;52.870;8.798;2022-12-07T10:43:48;12.73;;;3.92;;
24383;SDS011;12504;52.870;8.798;2022-12-07T10:48:54;7.72;;;3.83;;
24383;SDS011;12504;52.870;8.798;2022-12-07T11:11:13;15.55;;;5.53;;
24383;SDS011;12504;52.870;8.798;2022-12-07T11:19:18;7.10;;;3.53;;
24383;SDS011;12504;52.870;8.798;2022-12-07T11:21:58;7.88;;;2.85;;
24383;SDS011;12504;52.870;8.798;2022-12-07T11:24:48;9.45;;;3.95;;
24383;SDS011;12504;52.870;8.798;2022-12-07T11:27:34;7.55;;;4.32;;
24383;SDS011;12504;52.870;8.798;2022-12-07T11:30:18;8.90;;;6.03;;
24383;SDS011;12504;52.870;8.798;2022-12-07T11:35:43;13.52;;;5.88;;
24383;SDS011;12504;52.870;8.798;2022-12-07T11:41:13;9.90;;;3.70;;
24383;SDS011;12504;52.870;8.798;2022-12-07T11:46:22;5.82;;;3.28;;
24383;SDS011;12504;52.870;8.798;2022-12-07T11:48:54;5.85;;;4.15;;
24383;SDS011;12504;52.870;8.798;2022-12-07T11:51:20;9.45;;;3.33;;
24383;SDS011;12504;52.870;8.798;2022-12-07T11:53:49;9.43;;;2.90;;
24383;SDS011;12504;52.870;8.798;2022-12-07T11:56:21;13.85;;;3.28;;
24383;SDS011;12504;52.870;8.798;2022-12-07T11:58:54;6.47;;;2.40;;
24383;SDS011;12504;52.870;8.798;2022-12-07T12:01:38;5.10;;;2.55;;
24383;SDS011;12504;52.870;8.798;2022-12-07T12:04:23;10.48;;;2.85;;
24383;SDS011;12504;52.870;8.798;2022-12-07T12:06:57;10.50;;;2.72;;
24383;SDS011;12504;52.870;8.798;2022-12-07T12:22:39;5.97;;;1.80;;
24383;SDS011;12504;52.870;8.798;2022-12-07T12:25:22;8.38;;;1.83;;
24383;SDS011;12504;52.870;8.798;2022-12-07T12:27:58;6.57;;;2.47;;
24383;SDS011;12504;52.870;8.798;2022-12-07T12:30:25;9.15;;;2.13;;
24383;SDS011;12504;52.870;8.798;2022-12-07T12:33:05;8.27;;;2.05;;
24383;SDS011;12504;52.870;8.798;2022-12-07T12:35:38;6.35;;;2.65;;
24383;SDS011;12504;52.870;8.798;2022-12-07T12:40:52;8.77;;;1.83;;
24383;SDS011;12504;52.870;8.798;2022-12-07T12:49:14;9.65;;;2.05;;
24383;SDS011;12504;52.870;8.798;2022-12-07T12:54:23;2.50;;;1.92;;
24383;SDS011;12504;52.870;8.798;2022-12-07T13:01:46;7.47;;;2.00;;
24383;SDS011;12504;52.870;8.798;2022-12-07T13:04:17;6.13;;;1.25;;
24383;SDS011;12504;52.870;8.798;2022-12-07T13:06:55;3.58;;;1.40;;
24383;SDS011;12504;52.870;8.798;2022-12-07T13:09:26;4.68;;;1.50;;
24383;SDS011;12504;52.870;8.798;2022-12-07T13:11:58;4.13;;;1.50;;
24383;SDS011;12504;52.870;8.798;2022-12-07T13:17:03;4.15;;;1.63;;
24383;SDS011;12504;52.870;8.798;2022-12-07T13:27:47;8.05;;;3.22;;
24383;SDS011;12504;52.870;8.798;2022-12-07T13:30:21;6.97;;;1.95;;
24383;SDS011;12504;52.870;8.798;2022-12-07T13:32:52;9.00;;;2.90;;
24383;SDS011;12504;52.870;8.798;2022-12-07T13:35:27;4.78;;;1.38;;
24383;SDS011;12504;52.870;8.798;2022-12-07T13:37:54;2.63;;;1.50;;
24383;SDS011;12504;52.870;8.798;2022-12-07T13:40:21;9.85;;;1.70;;
24383;SDS011;12504;52.870;8.798;2022-12-07T13:42:48;4.18;;;1.98;;
24383;SDS011;12504;52.870;8.798;2022-12-07T13:45:27;3.80;;;1.85;;
24383;SDS011;12504;52.870;8.798;2022-12-07T13:48:21;3.03;;;1.35;;
24383;SDS011;12504;52.870;8.798;2022-12-07T13:50:57;5.05;;;2.13;;
24383;SDS011;12504;52.870;8.798;2022-12-07T13:53:24;2.63;;;1.95;;
24383;SDS011;12504;52.870;8.798;2022-12-07T13:55:55;4.47;;;1.42;;
24383;SDS011;12504;52.870;8.798;2022-12-07T13:58:22;11.02;;;1.83;;
24383;SDS011;12504;52.870;8.798;2022-12-07T14:00:48;6.35;;;1.50;;
24383;SDS011;12504;52.870;8.798;2022-12-07T14:05:40;6.72;;;2.67;;
24383;SDS011;12504;52.870;8.798;2022-12-07T14:10:37;4.90;;;1.80;;
24383;SDS011;12504;52.870;8.798;2022-12-07T14:13:24;6.07;;;1.77;;
24383;SDS011;12504;52.870;8.798;2022-12-07T14:15:57;6.03;;;3.58;;
24383;SDS011;12504;52.870;8.798;2022-12-07T14:18:28;2.70;;;1.52;;
24383;SDS011;12504;52.870;8.798;2022-12-07T14:23:39;4.90;;;1.65;;
24383;SDS011;12504;52.870;8.798;2022-12-07T14:26:12;4.57;;;1.45;;
24383;SDS011;12504;52.870;8.798;2022-12-07T14:28:39;2.15;;;1.25;;
24383;SDS011;12504;52.870;8.798;2022-12-07T14:31:13;8.13;;;1.60;;
24383;SDS011;12504;52.870;8.798;2022-12-07T14:33:41;4.15;;;1.50;;
24383;SDS011;12504;52.870;8.798;2022-12-07T14:36:13;3.22;;;2.35;;
24383;SDS011;12504;52.870;8.798;2022-12-07T14:38:40;3.75;;;2.17;;
24383;SDS011;12504;52.870;8.798;2022-12-07T14:41:06;4.40;;;2.50;;
24383;SDS011;12504;52.870;8.798;2022-12-07T14:43:57;9.32;;;2.80;;
24383;SDS011;12504;52.870;8.798;2022-12-07T14:46:23;10.05;;;3.50;;
24383;SDS011;12504;52.870;8.798;2022-12-07T14:48:49;13.20;;;6.97;;
24383;SDS011;12504;52.870;8.798;2022-12-07T14:51:15;21.98;;;8.90;;
24383;SDS011;12504;52.870;8.798;2022-12-07T14:53:44;18.17;;;7.10;;
24383;SDS011;12504;52.870;8.798;2022-12-07T14:56:13;11.98;;;5.28;;
24383;SDS011;12504;52.870;8.798;2022-12-07T14:58:39;6.88;;;4.88;;
24383;SDS011;12504;52.870;8.798;2022-12-07T15:01:05;18.25;;;8.70;;
24383;SDS011;12504;52.870;8.798;2022-12-07T15:03:31;20.88;;;12.82;;
24383;SDS011;12504;52.870;8.798;2022-12-07T15:05:59;11.35;;;5.45;;
24383;SDS011;12504;52.870;8.798;2022-12-07T15:08:25;18.60;;;7.47;;
24383;SDS011;12504;52.870;8.798;2022-12-07T15:10:51;18.33;;;8.27;;
24383;SDS011;12504;52.870;8.798;2022-12-07T15:13:17;22.75;;;7.38;;
24383;SDS011;12504;52.870;8.798;2022-12-07T15:16:02;13.85;;;6.40;;
24383;SDS011;12504;52.870;8.798;2022-12-07T15:18:27;16.52;;;6.38;;
24383;SDS011;12504;52.870;8.798;2022-12-07T15:20:53;32.67;;;14.20;;
24383;SDS011;12504;52.870;8.798;2022-12-07T15:23:19;37.65;;;16.10;;
24383;SDS011;12504;52.870;8.798;2022-12-07T15:25:45;11.45;;;6.35;;
24383;SDS011;12504;52.870;8.798;2022-12-07T15:28:12;2.78;;;2.08;;
24383;SDS011;12504;52.870;8.798;2022-12-07T15:30:39;4.18;;;2.33;;
24383;SDS011;12504;52.870;8.798;2022-12-07T15:33:07;4.40;;;1.63;;
24383;SDS011;12504;52.870;8.798;2022-12-07T15:35:38;5.93;;;1.98;;
24383;SDS011;12504;52.870;8.798;2022-12-07T15:38:10;2.97;;;1.88;;
24383;SDS011;12504;52.870;8.798;2022-12-07T15:40:36;2.15;;;1.60;;
24383;SDS011;12504;52.870;8.798;2022-12-07T15:43:02;3.72;;;2.03;;
24383;SDS011;12504;52.870;8.798;2022-12-07T15:45:28;3.33;;;2.20;;
24383;SDS011;12504;52.870;8.798;2022-12-07T15:47:54;6.25;;;2.65;;
24383;SDS011;12504;52.870;8.798;2022-12-07T15:50:20;2.65;;;1.88;;
24383;SDS011;12504;52.870;8.798;2022-12-07T15:52:47;9.82;;;6.07;;
24383;SDS011;12504;52.870;8.798;2022-12-07T15:55:13;10.95;;;6.82;;
24383;SDS011;12504;52.870;8.798;2022-12-07T15:57:39;13.27;;;4.78;;
24383;SDS011;12504;52.870;8.798;2022-12-07T16:00:05;6.53;;;2.20;;
24383;SDS011;12504;52.870;8.798;2022-12-07T16:02:34;3.97;;;1.92;;
24383;SDS011;12504;52.870;8.798;2022-12-07T16:05:01;5.32;;;2.20;;
24383;SDS011;12504;52.870;8.798;2022-12-07T16:07:27;8.55;;;4.90;;
24383;SDS011;12504;52.870;8.798;2022-12-07T16:09:52;11.77;;;4.85;;
24383;SDS011;12504;52.870;8.798;2022-12-07T16:12:18;6.45;;;3.60;;
24383;SDS011;12504;52.870;8.798;2022-12-07T16:14:44;6.07;;;3.10;;
24383;SDS011;12504;52.870;8.798;2022-12-07T16:17:10;3.17;;;2.20;;
24383;SDS011;12504;52.870;8.798;2022-12-07T16:19:36;9.32;;;3.45;;
24383;SDS011;12504;52.870;8.798;2022-12-07T16:22:02;9.65;;;4.03;;
24383;SDS011;12504;52.870;8.798;2022-12-07T16:24:29;4.95;;;3.05;;
24383;SDS011;12504;52.870;8.798;2022-12-07T16:26:55;13.38;;;7.13;;
24383;SDS011;12504;52.870;8.798;2022-12-07T16:29:21;22.95;;;13.05;;
24383;SDS011;12504;52.870;8.798;2022-12-07T16:31:48;15.98;;;11.13;;
24383;SDS011;12504;52.870;8.798;2022-12-07T16:34:14;11.88;;;8.30;;
24383;SDS011;12504;52.870;8.798;2022-12-07T16:36:40;13.32;;;8.23;;
24383;SDS011;12504;52.870;8.798;2022-12-07T16:39:06;12.85;;;7.93;;
24383;SDS011;12504;52.870;8.798;2022-12-07T16:41:32;10.30;;;5.20;;
24383;SDS011;12504;52.870;8.798;2022-12-07T16:44:02;9.93;;;4.88;;
24383;SDS011;12504;52.870;8.798;2022-12-07T16:46:31;6.13;;;3.40;;
24383;SDS011;12504;52.870;8.798;2022-12-07T16:48:58;7.13;;;3.72;;
24383;SDS011;12504;52.870;8.798;2022-12-07T16:51:23;13.07;;;4.95;;